^^
Station Historical Data
Daily Summary for January 1, 2018 Units:  English    Metric   Both
« Previous Day
Next Day »
Daily Weekly Monthly Yearly Custom
  High: Low: Average:
Temperature: TemperatureF °F 62.4 °F 76.5 °F
Dew Point: DewpointF °F 4.6 °F 22.7 °F
Humidity: Humidity% 7% 14%
Wind Speed: WindSpeedMPHmph 0.0mph 2.5mph
Wind Gust: WindSpeedGustMPHmph - -
Wind- - SSE
Pressure: PressureIn in 30.03 in -
Precipitation: 0.00 in    
Historical Graphs
 
 
Tabular Data for January 1, 2018
Time Temperature Dew Point Pressure Wind Wind Speed Wind Gust Humidity Rainfall Rate (Hourly) solar Conditions
TemperatureF °F DewpointF °F PressureIn in Calm     Humidity% HourlyPrecipIn in SolarRadiationWatts/m^2 W/m2 Conditions
00:00 67.5 °F 37.4 °F 30.12 in WSW 2.0 mph 2.0 mph 33% 0.00 in 0.0 W/m2
00:06 67.3 °F 37.2 °F 30.12 in Calm   4.0 mph 33% 0.00 in 0.0 W/m2
00:11 66.9 °F 36.9 °F 30.12 in Calm   3.0 mph 33% 0.00 in 0.0 W/m2
00:16 66.9 °F 36.9 °F 30.12 in Calm   3.0 mph 33% 0.00 in 0.0 W/m2
00:21 66.7 °F 36.7 °F 30.12 in Calm   1.0 mph 33% 0.00 in 0.0 W/m2
00:26 66.6 °F 36.5 °F 30.11 in Calm     33% 0.00 in 0.0 W/m2
00:31 66.4 °F 35.6 °F 30.11 in Calm   2.0 mph 32% 0.00 in 0.0 W/m2
00:37 66.0 °F 33.6 °F 30.11 in Calm   1.0 mph 30% 0.00 in 0.0 W/m2
00:42 66.0 °F 33.6 °F 30.11 in Calm     30% 0.00 in 0.0 W/m2
00:48 65.8 °F 33.6 °F 30.11 in Calm   1.0 mph 30% 0.00 in 0.0 W/m2
00:53 65.7 °F 33.4 °F 30.10 in Calm   1.0 mph 30% 0.00 in 0.0 W/m2
00:58 65.5 °F 32.4 °F 30.10 in Calm   1.0 mph 29% 0.00 in 0.0 W/m2
01:03 65.1 °F 31.3 °F 30.10 in Calm   1.0 mph 28% 0.00 in 0.0 W/m2
01:08 65.1 °F 30.4 °F 30.10 in ESE 2.9 mph 5.0 mph 27% 0.00 in 0.0 W/m2
01:13 65.1 °F 29.3 °F 30.10 in Calm   1.0 mph 26% 0.00 in 0.0 W/m2
01:18 65.3 °F 28.6 °F 30.10 in Calm     25% 0.00 in 0.0 W/m2
01:23 65.1 °F 27.5 °F 30.10 in Calm     24% 0.00 in 0.0 W/m2
01:28 65.1 °F 26.4 °F 30.10 in Calm   1.0 mph 23% 0.00 in 0.0 W/m2
01:33 65.1 °F 26.4 °F 30.10 in Calm     23% 0.00 in 0.0 W/m2
01:39 65.1 °F 26.4 °F 30.10 in Calm     23% 0.00 in 0.0 W/m2
01:44 64.9 °F 27.3 °F 30.10 in Calm     24% 0.00 in 0.0 W/m2
01:49 64.8 °F 27.1 °F 30.10 in Calm     24% 0.00 in 0.0 W/m2
01:54 64.8 °F 26.1 °F 30.10 in Calm   1.0 mph 23% 0.00 in 0.0 W/m2
01:58 64.6 °F 22.6 °F 30.10 in WSW 0.9 mph 1.0 mph 20% 0.00 in 0.0 W/m2
02:03 64.6 °F 22.6 °F 30.10 in SW 0.9 mph 2.0 mph 20% 0.00 in 0.0 W/m2
02:08 64.6 °F 21.4 °F 30.10 in Calm   4.0 mph 19% 0.00 in 0.0 W/m2
02:13 64.8 °F 21.6 °F 30.10 in Calm   1.0 mph 19% 0.00 in 0.0 W/m2
02:15 64.8 °F 20.3 °F 30.10 in SW 2.0 mph 3.0 mph 18% 0.00 in 0.0 W/m2
02:21 64.9 °F 20.5 °F 30.10 in Calm   3.0 mph 18% 0.00 in 0.0 W/m2
02:27 65.1 °F 20.5 °F 30.10 in Calm   3.0 mph 18% 0.00 in 0.0 W/m2
02:32 65.1 °F 21.7 °F 30.10 in Calm     19% 0.00 in 0.0 W/m2
02:37 64.9 °F 21.7 °F 30.10 in Calm   2.0 mph 19% 0.00 in 0.0 W/m2
02:42 64.8 °F 21.6 °F 30.10 in Calm     19% 0.00 in 0.0 W/m2
02:47 64.6 °F 21.4 °F 30.10 in Calm     19% 0.00 in 0.0 W/m2
02:52 64.2 °F 22.3 °F 30.10 in Calm     20% 0.00 in 0.0 W/m2
02:57 63.9 °F 21.9 °F 30.10 in Calm     20% 0.00 in 0.0 W/m2
03:02 63.7 °F 23.0 °F 30.10 in Calm     21% 0.00 in 0.0 W/m2
03:08 63.3 °F 22.6 °F 30.10 in Calm     21% 0.00 in 0.0 W/m2
03:13 63.0 °F 24.6 °F 30.10 in Calm     23% 0.00 in 0.0 W/m2
03:18 62.8 °F 22.3 °F 30.10 in Calm     21% 0.00 in 0.0 W/m2
03:23 62.4 °F 18.3 °F 30.10 in Calm   3.0 mph 18% 0.00 in 0.0 W/m2
03:28 62.8 °F 17.2 °F 30.10 in SSW 4.0 mph 5.0 mph 17% 0.00 in 0.0 W/m2
03:29 63.0 °F 17.4 °F 30.10 in SSW 2.0 mph 5.0 mph 17% 0.00 in 0.0 W/m2
03:34 63.3 °F 17.8 °F 30.10 in Calm   4.0 mph 17% 0.00 in 0.0 W/m2
03:39 63.9 °F 16.7 °F 30.10 in Calm   3.0 mph 16% 0.00 in 0.0 W/m2
03:44 64.2 °F 17.1 °F 30.10 in SSE 0.9 mph 4.0 mph 16% 0.00 in 0.0 W/m2
03:49 64.8 °F 17.4 °F 30.10 in SSW 2.9 mph 6.0 mph 16% 0.00 in 0.0 W/m2
03:55 65.1 °F 16.3 °F 30.10 in SW 4.0 mph 7.0 mph 15% 0.00 in 0.0 W/m2
04:00 65.5 °F 16.5 °F 30.10 in Calm   6.0 mph 15% 0.00 in 0.0 W/m2
04:05 65.5 °F 16.5 °F 30.10 in Calm   4.0 mph 15% 0.00 in 0.0 W/m2
04:10 65.3 °F 18.0 °F 30.10 in Calm   2.0 mph 16% 0.00 in 0.0 W/m2
04:15 65.1 °F 17.8 °F 30.09 in SSW 4.0 mph 5.0 mph 16% 0.00 in 0.0 W/m2
04:17 65.1 °F 17.8 °F 30.09 in Calm   3.0 mph 16% 0.00 in 0.0 W/m2
04:22 64.8 °F 17.4 °F 30.09 in Calm   1.0 mph 16% 0.00 in 0.0 W/m2
04:27 64.8 °F 16.0 °F 30.09 in Calm   1.0 mph 15% 0.00 in 0.0 W/m2
04:29 64.6 °F 17.4 °F 30.09 in Calm   1.0 mph 16% 0.00 in 0.0 W/m2
04:34 64.6 °F 17.4 °F 30.09 in SSW 0.9 mph 2.0 mph 16% 0.00 in 0.0 W/m2
04:39 64.4 °F 17.2 °F 30.09 in Calm   1.0 mph 16% 0.00 in 0.0 W/m2
04:44 64.2 °F 17.1 °F 30.09 in Calm     16% 0.00 in 0.0 W/m2
04:49 64.0 °F 15.4 °F 30.09 in Calm   1.0 mph 15% 0.00 in 0.0 W/m2
04:54 63.9 °F 15.3 °F 30.09 in SSW 0.9 mph 2.0 mph 15% 0.00 in 0.0 W/m2
04:59 63.9 °F 15.3 °F 30.09 in South 2.0 mph 5.0 mph 15% 0.00 in 0.0 W/m2
05:04 64.0 °F 15.4 °F 30.09 in SSW 2.9 mph 7.0 mph 15% 0.00 in 0.0 W/m2
05:09 64.2 °F 15.6 °F 30.09 in SSW 0.9 mph 2.0 mph 15% 0.00 in 0.0 W/m2
05:15 64.4 °F 14.2 °F 30.09 in Calm   4.0 mph 14% 0.00 in 0.0 W/m2
05:21 64.2 °F 14.0 °F 30.09 in SSW 0.9 mph 3.0 mph 14% 0.00 in 0.0 W/m2
05:26 64.2 °F 12.4 °F 30.09 in Calm   4.0 mph 13% 0.00 in 0.0 W/m2
05:29 64.2 °F 12.4 °F 30.09 in SE 2.0 mph 2.0 mph 13% 0.00 in 0.0 W/m2
05:34 64.2 °F 10.6 °F 30.10 in South 0.9 mph 9.0 mph 12% 0.00 in 0.0 W/m2
05:40 64.4 °F 10.6 °F 30.10 in SSE 2.0 mph 6.0 mph 12% 0.00 in 0.0 W/m2
05:45 64.6 °F 10.8 °F 30.10 in SSE 4.0 mph 8.0 mph 12% 0.00 in 0.0 W/m2
05:48 64.6 °F 10.8 °F 30.10 in Calm   7.0 mph 12% 0.00 in 0.0 W/m2
05:53 64.9 °F 9.1 °F 30.10 in Calm   7.0 mph 11% 0.00 in 0.0 W/m2
05:58 65.1 °F 9.3 °F 30.10 in Calm   6.0 mph 11% 0.00 in 0.0 W/m2
06:03 65.1 °F 9.3 °F 30.10 in SSW 2.0 mph 4.0 mph 11% 0.00 in 0.0 W/m2
06:09 65.1 °F 9.3 °F 30.10 in SSW 0.9 mph 6.0 mph 11% 0.00 in 0.0 W/m2
06:15 65.1 °F 9.3 °F 30.10 in SE 0.9 mph 2.0 mph 11% 0.00 in 5.0 W/m2
06:20 64.9 °F 9.1 °F 30.11 in South 4.0 mph 4.0 mph 11% 0.00 in 7.0 W/m2
06:25 64.9 °F 4.6 °F 30.11 in Calm   7.0 mph 9% 0.00 in 7.0 W/m2
06:30 64.9 °F 4.6 °F 30.12 in WSW 2.0 mph 7.0 mph 9% 0.00 in 9.0 W/m2
06:35 65.1 °F 4.8 °F 30.12 in South 2.9 mph 5.0 mph 9% 0.00 in 11.0 W/m2
06:40 65.1 °F 7.2 °F 30.12 in SSW 2.0 mph 4.0 mph 10% 0.00 in 12.0 W/m2
06:46 65.1 °F 9.3 °F 30.12 in SW 4.0 mph 7.0 mph 11% 0.00 in 14.0 W/m2
06:50 65.1 °F 7.2 °F 30.12 in South 2.0 mph 5.0 mph 10% 0.00 in 16.0 W/m2
06:55 65.3 °F 9.5 °F 30.12 in SSW 6.9 mph 11.0 mph 11% 0.00 in 16.0 W/m2
07:00 65.7 °F 9.7 °F 30.12 in SW 4.0 mph 9.0 mph 11% 0.00 in 18.0 W/m2
07:05 65.7 °F 7.5 °F 30.13 in SSW 12.1 mph 13.0 mph 10% 0.00 in 18.0 W/m2
07:10 66.2 °F 5.7 °F 30.13 in WSW 0.9 mph 6.0 mph 9% 0.00 in 19.0 W/m2
07:15 66.6 °F 10.4 °F 30.13 in South 2.0 mph 4.0 mph 11% 0.00 in 21.0 W/m2
07:18 66.6 °F 10.4 °F 30.13 in SSW 2.9 mph 7.0 mph 11% 0.00 in 21.0 W/m2
07:23 66.9 °F 10.8 °F 30.13 in SW 0.9 mph 10.0 mph 11% 0.00 in 21.0 W/m2
07:28 67.1 °F 10.8 °F 30.14 in SSE 4.0 mph 12.0 mph 11% 0.00 in 23.0 W/m2
07:31 67.3 °F 12.9 °F 30.14 in SSE 6.0 mph 6.0 mph 12% 0.00 in 23.0 W/m2
07:36 67.5 °F 13.1 °F 30.14 in SE 6.9 mph 7.0 mph 12% 0.00 in 23.0 W/m2
07:41 67.6 °F 15.1 °F 30.14 in SSW 4.9 mph 6.0 mph 13% 0.00 in 25.0 W/m2
07:46 67.8 °F 15.1 °F 30.14 in SSW 0.9 mph 4.0 mph 13% 0.00 in 125.0 W/m2
07:51 68.2 °F 15.4 °F 30.14 in SSW 4.0 mph 12.0 mph 13% 0.00 in 355.0 W/m2
07:57 68.7 °F 15.8 °F 30.15 in Calm   8.0 mph 13% 0.00 in 401.0 W/m2
08:03 69.4 °F 16.5 °F 30.14 in SSE 6.0 mph 7.0 mph 13% 0.00 in 424.0 W/m2
08:08 70.2 °F 17.1 °F 30.14 in SW 2.9 mph 11.0 mph 13% 0.00 in 443.0 W/m2
08:13 70.5 °F 17.2 °F 30.14 in SSE 0.9 mph 7.0 mph 13% 0.00 in 466.0 W/m2
08:19 71.1 °F 17.8 °F 30.15 in SSW 2.9 mph 6.0 mph 13% 0.00 in 487.0 W/m2
08:24 71.4 °F 19.8 °F 30.15 in ESE 2.0 mph 2.0 mph 14% 0.00 in 506.0 W/m2
08:29 72.0 °F 20.1 °F 30.15 in South 4.0 mph 7.0 mph 14% 0.00 in 529.0 W/m2
08:34 72.3 °F 20.5 °F 30.15 in South 2.0 mph 7.0 mph 14% 0.00 in 545.0 W/m2
08:39 72.9 °F 20.8 °F 30.15 in West 2.0 mph 5.0 mph 14% 0.00 in 564.0 W/m2
08:44 73.0 °F 21.0 °F 30.15 in SE 2.9 mph 4.0 mph 14% 0.00 in 584.0 W/m2
08:49 73.6 °F 19.8 °F 30.15 in SSE 4.9 mph 6.0 mph 13% 0.00 in 605.0 W/m2
08:54 73.9 °F 18.1 °F 30.15 in SSE 6.0 mph 7.0 mph 12% 0.00 in 624.0 W/m2
09:05 74.7 °F 20.5 °F 30.15 in SW 2.9 mph 4.0 mph 13% 0.00 in 664.0 W/m2
09:09 74.7 °F 23.9 °F 30.14 in South 8.1 mph 8.1 mph 15% 0.00 in 679.0 W/m2
09:14 75.0 °F 20.8 °F 30.15 in SE 2.9 mph 7.0 mph 13% 0.00 in 696.0 W/m2
09:19 75.6 °F 21.2 °F 30.15 in SSE 4.0 mph 7.0 mph 13% 0.00 in 712.0 W/m2
09:24 75.7 °F 21.4 °F 30.15 in South 10.1 mph 11.0 mph 13% 0.00 in 729.0 W/m2
09:25 75.9 °F 19.6 °F 30.15 in South 4.0 mph 11.0 mph 12% 0.00 in 733.0 W/m2
09:30 76.1 °F 21.7 °F 30.15 in SSW 4.9 mph 9.0 mph 13% 0.00 in 749.0 W/m2
09:31 76.3 °F 21.7 °F 30.15 in SE 4.0 mph 9.0 mph 13% 0.00 in 754.0 W/m2
09:33 76.3 °F 21.7 °F 30.15 in SE 0.9 mph 7.0 mph 13% 0.00 in 759.0 W/m2
09:38 76.8 °F 20.3 °F 30.15 in SSE 2.9 mph 6.0 mph 12% 0.00 in 775.0 W/m2
09:43 77.4 °F 18.7 °F 30.15 in SSW 0.9 mph 5.0 mph 11% 0.00 in 793.0 W/m2
09:44 77.5 °F 18.9 °F 30.15 in ESE 6.9 mph 10.0 mph 11% 0.00 in 793.0 W/m2
09:50 77.5 °F 18.9 °F 30.15 in SE 2.9 mph 9.0 mph 11% 0.00 in 812.0 W/m2
09:51 77.5 °F 18.9 °F 30.15 in SSE 8.9 mph 11.0 mph 11% 0.00 in 816.0 W/m2
09:56 77.7 °F 19.0 °F 30.15 in SE 4.9 mph 9.0 mph 11% 0.00 in 831.0 W/m2
09:58 77.9 °F 19.2 °F 30.15 in SE 4.9 mph 8.0 mph 11% 0.00 in 840.0 W/m2
10:04 78.1 °F 19.2 °F 30.15 in South 6.9 mph 10.0 mph 11% 0.00 in 860.0 W/m2
10:09 78.3 °F 21.6 °F 30.15 in SE 6.9 mph 9.0 mph 12% 0.00 in 870.0 W/m2
10:14 78.4 °F 19.6 °F 30.15 in ESE 6.0 mph 10.0 mph 11% 0.00 in 884.0 W/m2
10:20 79.2 °F 20.1 °F 30.15 in South 0.9 mph 9.0 mph 11% 0.00 in 896.0 W/m2
10:25 79.3 °F 20.3 °F 30.15 in SE 6.0 mph 9.0 mph 11% 0.00 in 914.0 W/m2
10:30 79.9 °F 18.5 °F 30.15 in SE 2.9 mph 11.0 mph 10% 0.00 in 925.0 W/m2
10:37 80.2 °F 18.7 °F 30.15 in SSE 4.0 mph 9.0 mph 10% 0.00 in 942.0 W/m2
10:42 80.2 °F 16.3 °F 30.15 in SE 6.0 mph 9.0 mph 9% 0.00 in 956.0 W/m2
10:47 80.6 °F 13.8 °F 30.15 in WSW 0.9 mph 3.0 mph 8% 0.00 in 970.0 W/m2
10:52 81.0 °F 16.9 °F 30.15 in SSW 2.9 mph 4.0 mph 9% 0.00 in 984.0 W/m2
10:57 81.1 °F 14.2 °F 30.15 in Calm   3.0 mph 8% 0.00 in 995.0 W/m2
11:02 81.7 °F 17.4 °F 30.15 in SSE 2.9 mph 6.0 mph 9% 0.00 in 1002.0 W/m2
11:08 81.7 °F 17.4 °F 30.15 in SE 0.9 mph 7.0 mph 9% 0.00 in 1009.0 W/m2
11:14 82.0 °F 17.6 °F 30.14 in SE 4.0 mph 9.0 mph 9% 0.00 in 1021.0 W/m2
11:19 82.4 °F 20.3 °F 30.14 in Calm   4.0 mph 10% 0.00 in 1028.0 W/m2
11:24 82.6 °F 20.5 °F 30.14 in Calm   3.0 mph 10% 0.00 in 1035.0 W/m2
11:29 82.8 °F 20.7 °F 30.14 in SSE 4.0 mph 7.0 mph 10% 0.00 in 1044.0 W/m2
11:34 82.8 °F 18.1 °F 30.14 in ESE 0.9 mph 8.0 mph 9% 0.00 in 1053.0 W/m2
11:40 82.8 °F 18.1 °F 30.14 in SSW 2.9 mph 5.0 mph 9% 0.00 in 1058.0 W/m2
11:45 82.6 °F 20.5 °F 30.13 in SE 0.9 mph 7.0 mph 10% 0.00 in 1065.0 W/m2
11:50 82.9 °F 20.8 °F 30.13 in SSE 8.1 mph 12.0 mph 10% 0.00 in 1071.0 W/m2
11:56 83.5 °F 18.7 °F 30.13 in ENE 0.9 mph 5.0 mph 9% 0.00 in 1078.0 W/m2
12:01 84.2 °F 21.7 °F 30.13 in ESE 2.9 mph 4.0 mph 10% 0.00 in 1081.0 W/m2
12:06 84.7 °F 19.6 °F 30.13 in East 6.9 mph 10.0 mph 9% 0.00 in 1085.0 W/m2
12:11 85.1 °F 17.2 °F 30.12 in NE 2.9 mph 5.0 mph 8% 0.00 in 1088.0 W/m2
12:16 85.5 °F 17.4 °F 30.12 in West 4.9 mph 6.0 mph 8% 0.00 in 1090.0 W/m2
12:22 85.5 °F 17.4 °F 30.12 in Calm   8.0 mph 8% 0.00 in 1092.0 W/m2
12:27 85.6 °F 17.6 °F 30.12 in ESE 4.9 mph 10.0 mph 8% 0.00 in 1093.0 W/m2
12:32 86.2 °F 14.9 °F 30.12 in ENE 2.0 mph 6.0 mph 7% 0.00 in 1097.0 W/m2
12:38 86.2 °F 18.0 °F 30.12 in North 2.0 mph 7.0 mph 8% 0.00 in 1097.0 W/m2
12:43 86.5 °F 21.0 °F 30.11 in South 10.1 mph 11.0 mph 9% 0.00 in 1097.0 W/m2
12:48 86.9 °F 18.5 °F 30.11 in ESE 6.0 mph 8.0 mph 8% 0.00 in 1092.0 W/m2
12:53 87.3 °F 21.6 °F 30.11 in WSW 6.9 mph 9.0 mph 9% 0.00 in 1079.0 W/m2
12:58 86.7 °F 21.2 °F 30.11 in West 2.9 mph 9.0 mph 9% 0.00 in 1081.0 W/m2
13:03 87.1 °F 21.4 °F 30.11 in NE 0.9 mph 10.0 mph 9% 0.00 in 1092.0 W/m2
13:09 87.6 °F 19.0 °F 30.10 in South 4.0 mph 5.0 mph 8% 0.00 in 1092.0 W/m2
13:14 88.2 °F 19.4 °F 30.11 in South 4.0 mph 7.0 mph 8% 0.00 in 1083.0 W/m2
13:19 88.3 °F 19.6 °F 30.10 in South 6.9 mph 9.0 mph 8% 0.00 in 1079.0 W/m2
13:24 88.5 °F 19.8 °F 30.10 in SSW 2.9 mph 7.0 mph 8% 0.00 in 1085.0 W/m2
13:30 88.9 °F 16.9 °F 30.10 in SSE 0.9 mph 11.0 mph 7% 0.00 in 1086.0 W/m2
13:35 89.1 °F 17.1 °F 30.10 in SW 0.9 mph 7.0 mph 7% 0.00 in 1079.0 W/m2
13:40 89.1 °F 20.1 °F 30.10 in SW 4.0 mph 8.0 mph 8% 0.00 in 1076.0 W/m2
13:45 88.7 °F 19.9 °F 30.10 in SW 4.0 mph 8.0 mph 8% 0.00 in 1069.0 W/m2
13:49 88.3 °F 22.3 °F 30.10 in SSE 8.1 mph 9.0 mph 9% 0.00 in 1062.0 W/m2
13:54 88.5 °F 19.8 °F 30.09 in SE 4.0 mph 5.0 mph 8% 0.00 in 1058.0 W/m2
14:00 88.9 °F 19.9 °F 30.09 in South 4.0 mph 10.0 mph 8% 0.00 in 1053.0 W/m2
14:05 89.1 °F 20.1 °F 30.09 in SE 2.0 mph 7.0 mph 8% 0.00 in 1046.0 W/m2
14:08 89.4 °F 20.3 °F 30.09 in South 4.0 mph 7.0 mph 8% 0.00 in 1041.0 W/m2
14:14 89.6 °F 20.5 °F 30.09 in SE 2.9 mph 6.0 mph 8% 0.00 in 1030.0 W/m2
14:20 90.1 °F 23.7 °F 30.09 in SSE 4.0 mph 9.0 mph 9% 0.00 in 1021.0 W/m2
14:25 90.3 °F 23.9 °F 30.09 in South 4.0 mph 5.0 mph 9% 0.00 in 1007.0 W/m2
14:30 90.3 °F 23.9 °F 30.08 in SSE 4.0 mph 9.0 mph 9% 0.00 in 1000.0 W/m2
14:36 90.3 °F 23.9 °F 30.08 in NE 0.9 mph 4.0 mph 9% 0.00 in 990.0 W/m2
14:42 90.7 °F 28.9 °F 30.08 in SSE 4.9 mph 7.0 mph 11% 0.00 in 977.0 W/m2
14:47 91.0 °F 27.0 °F 30.08 in South 2.9 mph 7.0 mph 10% 0.00 in 969.0 W/m2
14:52 91.0 °F 27.0 °F 30.08 in SSE 2.0 mph 8.0 mph 10% 0.00 in 960.0 W/m2
14:57 91.2 °F 27.1 °F 30.08 in South 6.0 mph 6.0 mph 10% 0.00 in 947.0 W/m2
15:02 91.2 °F 27.1 °F 30.07 in SE 6.0 mph 9.0 mph 10% 0.00 in 937.0 W/m2
15:07 91.4 °F 29.5 °F 30.07 in SSW 4.0 mph 9.0 mph 11% 0.00 in 925.0 W/m2
15:12 91.2 °F 27.1 °F 30.07 in SSW 6.0 mph 15.0 mph 10% 0.00 in 911.0 W/m2
15:17 91.0 °F 27.0 °F 30.07 in SSW 0.9 mph 8.0 mph 10% 0.00 in 898.0 W/m2
15:18 90.9 °F 26.8 °F 30.07 in SSW 0.9 mph 7.0 mph 10% 0.00 in 895.0 W/m2
15:23 90.7 °F 26.6 °F 30.07 in West 2.0 mph 6.0 mph 10% 0.00 in 882.0 W/m2
15:29 90.7 °F 28.9 °F 30.06 in SSW 4.9 mph 9.0 mph 11% 0.00 in 868.0 W/m2
15:34 90.9 °F 26.8 °F 30.06 in SSW 2.0 mph 6.0 mph 10% 0.00 in 853.0 W/m2
15:40 90.3 °F 26.4 °F 30.06 in SSW 2.9 mph 9.0 mph 10% 0.00 in 837.0 W/m2
15:45 90.3 °F 28.8 °F 30.06 in South 4.9 mph 10.0 mph 11% 0.00 in 821.0 W/m2
15:50 90.9 °F 29.1 °F 30.05 in South 2.9 mph 7.0 mph 11% 0.00 in 807.0 W/m2
15:55 91.4 °F 27.1 °F 30.05 in SSE 6.9 mph 10.0 mph 10% 0.00 in 788.0 W/m2
16:00 91.4 °F 27.1 °F 30.05 in South 4.9 mph 5.0 mph 10% 0.00 in 775.0 W/m2
16:05 91.6 °F 27.3 °F 30.05 in SSE 4.0 mph 7.0 mph 10% 0.00 in 758.0 W/m2
16:10 91.8 °F 27.5 °F 30.05 in SE 6.9 mph 9.0 mph 10% 0.00 in 740.0 W/m2
16:15 91.4 °F 27.1 °F 30.04 in SSW 6.9 mph 8.0 mph 10% 0.00 in 722.0 W/m2
16:18 91.2 °F 27.1 °F 30.04 in ESE 2.9 mph 8.0 mph 10% 0.00 in 712.0 W/m2
16:23 91.2 °F 27.1 °F 30.05 in SE 4.9 mph 8.0 mph 10% 0.00 in 698.0 W/m2
16:26 91.2 °F 27.1 °F 30.05 in SE 2.0 mph 4.0 mph 10% 0.00 in 689.0 W/m2
16:31 91.2 °F 24.4 °F 30.04 in Calm   5.0 mph 9% 0.00 in 671.0 W/m2
16:36 91.4 °F 27.1 °F 30.04 in SW 0.9 mph 7.0 mph 10% 0.00 in 656.0 W/m2
16:42 91.2 °F 27.1 °F 30.04 in South 6.0 mph 7.0 mph 10% 0.00 in 635.0 W/m2
16:47 91.6 °F 29.7 °F 30.04 in SE 4.0 mph 8.0 mph 11% 0.00 in 617.0 W/m2
16:51 91.6 °F 27.3 °F 30.04 in SSE 2.0 mph 8.0 mph 10% 0.00 in 598.0 W/m2
16:56 91.2 °F 29.3 °F 30.04 in West 4.9 mph 13.0 mph 11% 0.00 in 580.0 W/m2
17:01 90.9 °F 29.1 °F 30.04 in Calm   7.0 mph 11% 0.00 in 563.0 W/m2
17:06 90.7 °F 28.9 °F 30.04 in SSE 2.0 mph 9.0 mph 11% 0.00 in 545.0 W/m2
17:11 90.7 °F 26.6 °F 30.04 in SSE 6.0 mph 7.0 mph 10% 0.00 in 524.0 W/m2
17:14 90.7 °F 26.6 °F 30.04 in Calm   7.0 mph 10% 0.00 in 517.0 W/m2
17:19 90.3 °F 28.8 °F 30.04 in SSW 2.0 mph 6.0 mph 11% 0.00 in 497.0 W/m2
17:24 90.3 °F 28.8 °F 30.03 in SE 6.0 mph 9.0 mph 11% 0.00 in 478.0 W/m2
17:29 90.3 °F 28.8 °F 30.04 in SE 2.0 mph 9.0 mph 11% 0.00 in 459.0 W/m2
17:34 90.1 °F 28.6 °F 30.04 in SE 11.0 mph 11.0 mph 11% 0.00 in 441.0 W/m2
17:39 89.8 °F 28.2 °F 30.03 in SSE 0.9 mph 8.0 mph 11% 0.00 in 420.0 W/m2
17:44 89.6 °F 28.2 °F 30.04 in SSE 4.0 mph 11.0 mph 11% 0.00 in 399.0 W/m2
17:49 89.1 °F 27.7 °F 30.03 in SSW 4.0 mph 7.0 mph 11% 0.00 in 380.0 W/m2
17:54 89.1 °F 27.7 °F 30.04 in SW 0.9 mph 17.0 mph 11% 0.00 in 359.0 W/m2
18:00 88.5 °F 27.3 °F 30.04 in SSE 4.0 mph 7.0 mph 11% 0.00 in 338.0 W/m2
18:05 88.5 °F 27.3 °F 30.04 in South 2.9 mph 7.0 mph 11% 0.00 in 316.0 W/m2
18:10 88.5 °F 27.3 °F 30.04 in SSE 6.0 mph 9.0 mph 11% 0.00 in 297.0 W/m2
18:15 88.5 °F 27.3 °F 30.04 in Calm   11.0 mph 11% 0.00 in 276.0 W/m2
18:20 88.5 °F 27.3 °F 30.04 in SE 6.9 mph 9.0 mph 11% 0.00 in 257.0 W/m2
18:21 88.5 °F 27.3 °F 30.04 in SE 8.9 mph 9.0 mph 11% 0.00 in 253.0 W/m2
18:26 88.3 °F 27.1 °F 30.04 in South 4.0 mph 11.0 mph 11% 0.00 in 232.0 W/m2
18:31 88.2 °F 27.0 °F 30.04 in SE 4.9 mph 11.0 mph 11% 0.00 in 211.0 W/m2
18:36 88.0 °F 27.0 °F 30.04 in SSE 4.0 mph 8.0 mph 11% 0.00 in 183.0 W/m2
18:40 87.3 °F 26.4 °F 30.05 in SE 4.9 mph 10.0 mph 11% 0.00 in 65.0 W/m2
18:46 86.5 °F 25.9 °F 30.05 in SE 4.0 mph 9.0 mph 11% 0.00 in 33.0 W/m2
18:51 86.0 °F 27.5 °F 30.05 in SSE 4.0 mph 8.0 mph 12% 0.00 in 26.0 W/m2
18:56 85.6 °F 27.1 °F 30.05 in ESE 2.9 mph 8.0 mph 12% 0.00 in 25.0 W/m2
19:01 85.3 °F 27.0 °F 30.05 in SE 4.9 mph 9.0 mph 12% 0.00 in 23.0 W/m2
19:04 84.9 °F 26.6 °F 30.05 in SE 2.9 mph 11.0 mph 12% 0.00 in 23.0 W/m2
19:09 84.6 °F 26.4 °F 30.06 in SE 4.0 mph 6.0 mph 12% 0.00 in 19.0 W/m2
19:14 84.0 °F 25.9 °F 30.06 in ESE 4.9 mph 6.0 mph 12% 0.00 in 16.0 W/m2
19:19 83.7 °F 25.7 °F 30.06 in South 6.9 mph 9.0 mph 12% 0.00 in 14.0 W/m2
19:24 83.1 °F 25.3 °F 30.06 in SSE 0.9 mph 8.0 mph 12% 0.00 in 11.0 W/m2
19:29 82.8 °F 25.0 °F 30.06 in SSE 2.9 mph 8.0 mph 12% 0.00 in 9.0 W/m2
19:35 82.6 °F 24.8 °F 30.07 in SSW 4.0 mph 6.0 mph 12% 0.00 in 5.0 W/m2
19:37 82.4 °F 26.6 °F 30.07 in South 2.0 mph 6.0 mph 13% 0.00 in 5.0 W/m2
19:42 82.0 °F 26.4 °F 30.07 in SE 2.9 mph 7.0 mph 13% 0.00 in 0.0 W/m2
19:47 81.7 °F 26.1 °F 30.07 in SE 4.9 mph 8.0 mph 13% 0.00 in 0.0 W/m2
19:52 81.3 °F 25.7 °F 30.07 in South 2.9 mph 7.0 mph 13% 0.00 in 0.0 W/m2
19:57 81.0 °F 27.3 °F 30.08 in ESE 4.9 mph 6.0 mph 14% 0.00 in 0.0 W/m2
20:02 80.8 °F 27.1 °F 30.08 in SSE 2.0 mph 8.0 mph 14% 0.00 in 0.0 W/m2
20:07 80.4 °F 26.8 °F 30.08 in SE 0.9 mph 8.0 mph 14% 0.00 in 0.0 W/m2
20:12 80.4 °F 26.8 °F 30.08 in South 6.9 mph 8.0 mph 14% 0.00 in 0.0 W/m2
20:18 80.2 °F 26.8 °F 30.08 in SSE 6.9 mph 7.0 mph 14% 0.00 in 0.0 W/m2
20:23 80.1 °F 28.2 °F 30.08 in South 8.1 mph 8.1 mph 15% 0.00 in 0.0 W/m2
20:28 79.9 °F 28.0 °F 30.09 in SE 2.9 mph 6.0 mph 15% 0.00 in 0.0 W/m2
20:33 79.7 °F 28.0 °F 30.09 in ESE 2.9 mph 4.0 mph 15% 0.00 in 0.0 W/m2
20:38 79.3 °F 27.7 °F 30.09 in SE 2.0 mph 5.0 mph 15% 0.00 in 0.0 W/m2
20:43 79.2 °F 29.1 °F 30.09 in East 0.9 mph 6.0 mph 16% 0.00 in 0.0 W/m2
20:48 78.8 °F 28.8 °F 30.09 in Calm   1.0 mph 16% 0.00 in 0.0 W/m2
20:54 78.4 °F 28.6 °F 30.10 in Calm   5.0 mph 16% 0.00 in 0.0 W/m2
20:59 78.3 °F 28.4 °F 30.10 in ESE 2.9 mph 5.0 mph 16% 0.00 in 0.0 W/m2
21:05 78.1 °F 29.7 °F 30.10 in SSE 2.9 mph 5.0 mph 17% 0.00 in 0.0 W/m2
21:08 77.9 °F 29.7 °F 30.10 in SE 0.9 mph 6.0 mph 17% 0.00 in 0.0 W/m2
21:09 77.9 °F 29.7 °F 30.10 in SE 0.9 mph 4.0 mph 17% 0.00 in 0.0 W/m2
21:15 77.7 °F 29.5 °F 30.10 in SSE 2.9 mph 5.0 mph 17% 0.00 in 0.0 W/m2
21:21 77.4 °F 29.1 °F 30.10 in Calm   5.0 mph 17% 0.00 in 0.0 W/m2
21:26 77.4 °F 29.1 °F 30.10 in Calm   3.0 mph 17% 0.00 in 0.0 W/m2
21:31 77.2 °F 30.4 °F 30.11 in Calm     18% 0.00 in 0.0 W/m2
21:36 76.8 °F 30.0 °F 30.11 in SE 0.9 mph 3.0 mph 18% 0.00 in 0.0 W/m2
21:38 76.6 °F 28.6 °F 30.11 in Calm   4.0 mph 17% 0.00 in 0.0 W/m2
21:43 76.5 °F 28.4 °F 30.11 in Calm   2.0 mph 17% 0.00 in 0.0 W/m2
21:48 76.3 °F 29.7 °F 30.11 in SE 2.0 mph 2.0 mph 18% 0.00 in 0.0 W/m2
21:53 75.9 °F 28.0 °F 30.11 in Calm   4.0 mph 17% 0.00 in 0.0 W/m2
21:56 75.9 °F 29.3 °F 30.11 in Calm     18% 0.00 in 0.0 W/m2
22:02 75.7 °F 29.3 °F 30.11 in Calm   1.0 mph 18% 0.00 in 0.0 W/m2
22:06 75.6 °F 30.4 °F 30.11 in Calm     19% 0.00 in 0.0 W/m2
22:11 75.0 °F 30.0 °F 30.12 in Calm     19% 0.00 in 0.0 W/m2
22:16 74.8 °F 29.8 °F 30.12 in Calm   1.0 mph 19% 0.00 in 0.0 W/m2
22:21 74.5 °F 30.7 °F 30.12 in Calm     20% 0.00 in 0.0 W/m2
22:26 74.3 °F 30.6 °F 30.12 in Calm     20% 0.00 in 0.0 W/m2
22:31 73.9 °F 31.5 °F 30.12 in Calm     21% 0.00 in 0.0 W/m2
22:36 73.6 °F 30.0 °F 30.12 in Calm     20% 0.00 in 0.0 W/m2
22:43 73.2 °F 29.7 °F 30.12 in Calm   4.0 mph 20% 0.00 in 0.0 W/m2
22:48 73.0 °F 32.0 °F 30.12 in Calm   2.0 mph 22% 0.00 in 0.0 W/m2
22:53 73.0 °F 29.7 °F 30.12 in ESE 0.9 mph 5.0 mph 20% 0.00 in 0.0 W/m2
22:58 73.0 °F 30.7 °F 30.12 in Calm   2.0 mph 21% 0.00 in 0.0 W/m2
23:01 73.0 °F 30.7 °F 30.12 in Calm     21% 0.00 in 0.0 W/m2
23:06 72.9 °F 30.6 °F 30.13 in Calm     21% 0.00 in 0.0 W/m2
23:11 72.7 °F 30.6 °F 30.13 in Calm     21% 0.00 in 0.0 W/m2
23:14 72.7 °F 30.6 °F 30.13 in Calm   1.0 mph 21% 0.00 in 0.0 W/m2
23:19 72.7 °F 30.6 °F 30.13 in Calm   1.0 mph 21% 0.00 in 0.0 W/m2
23:24 72.3 °F 31.3 °F 30.14 in Calm     22% 0.00 in 0.0 W/m2
23:29 72.1 °F 31.1 °F 30.14 in Calm     22% 0.00 in 0.0 W/m2
23:35 72.0 °F 32.2 °F 30.14 in Calm   1.0 mph 23% 0.00 in 0.0 W/m2
23:40 71.8 °F 32.0 °F 30.14 in Calm   2.0 mph 23% 0.00 in 0.0 W/m2
23:45 71.6 °F 30.7 °F 30.14 in Calm   4.0 mph 22% 0.00 in 0.0 W/m2
23:50 71.6 °F 30.7 °F 30.15 in WSW 2.0 mph 2.0 mph 22% 0.00 in 0.0 W/m2
23:55 71.6 °F 30.7 °F 30.14 in Calm   3.0 mph 22% 0.00 in 0.0 W/m2
Olympia, Windhoek, Namibia
Compliments of Weather Underground - 3.5 mb